sensor_id;sensor_type;location;lat;lon;timestamp;temperature;humidity
15815;DHT22;8008;50.024;8.172;2022-10-16T03:02:41;14.60;99.90
15815;DHT22;8008;50.024;8.172;2022-10-16T03:05:09;14.70;99.90
15815;DHT22;8008;50.024;8.172;2022-10-16T03:07:37;14.70;99.90
15815;DHT22;8008;50.024;8.172;2022-10-16T03:10:06;14.70;99.90
15815;DHT22;8008;50.024;8.172;2022-10-16T03:12:34;14.70;99.90
15815;DHT22;8008;50.024;8.172;2022-10-16T03:15:03;14.60;99.90
15815;DHT22;8008;50.024;8.172;2022-10-16T03:17:32;14.60;99.90
15815;DHT22;8008;50.024;8.172;2022-10-16T03:20:01;14.50;99.90
15815;DHT22;8008;50.024;8.172;2022-10-16T03:22:29;14.60;99.90
15815;DHT22;8008;50.024;8.172;2022-10-16T03:24:57;14.60;99.90
15815;DHT22;8008;50.024;8.172;2022-10-16T03:27:25;14.60;99.90
15815;DHT22;8008;50.024;8.172;2022-10-16T03:29:53;14.70;99.90
15815;DHT22;8008;50.024;8.172;2022-10-16T03:32:21;14.70;99.90
15815;DHT22;8008;50.024;8.172;2022-10-16T03:34:51;14.70;99.90
15815;DHT22;8008;50.024;8.172;2022-10-16T03:37:22;14.80;99.90
15815;DHT22;8008;50.024;8.172;2022-10-16T03:39:50;14.80;99.90
15815;DHT22;8008;50.024;8.172;2022-10-16T03:42:18;14.90;99.90
15815;DHT22;8008;50.024;8.172;2022-10-16T03:44:46;14.80;99.90
15815;DHT22;8008;50.024;8.172;2022-10-16T03:47:14;14.80;99.90
15815;DHT22;8008;50.024;8.172;2022-10-16T03:49:42;14.90;99.90
15815;DHT22;8008;50.024;8.172;2022-10-16T03:52:10;14.90;99.90
15815;DHT22;8008;50.024;8.172;2022-10-16T03:54:39;14.90;99.90
15815;DHT22;8008;50.024;8.172;2022-10-16T03:57:07;14.90;99.90
15815;DHT22;8008;50.024;8.172;2022-10-16T03:59:35;14.90;99.90
15815;DHT22;8008;50.024;8.172;2022-10-16T04:02:03;14.90;99.90
15815;DHT22;8008;50.024;8.172;2022-10-16T04:04:31;14.90;99.90
15815;DHT22;8008;50.024;8.172;2022-10-16T04:06:59;14.90;99.90
15815;DHT22;8008;50.024;8.172;2022-10-16T04:09:27;14.90;99.90
15815;DHT22;8008;50.024;8.172;2022-10-16T04:11:56;14.90;99.90
15815;DHT22;8008;50.024;8.172;2022-10-16T04:14:24;14.90;99.90
15815;DHT22;8008;50.024;8.172;2022-10-16T04:16:52;14.90;99.90
15815;DHT22;8008;50.024;8.172;2022-10-16T04:19:20;14.90;99.90
15815;DHT22;8008;50.024;8.172;2022-10-16T04:21:47;14.90;99.90
15815;DHT22;8008;50.024;8.172;2022-10-16T04:24:15;14.90;99.90
15815;DHT22;8008;50.024;8.172;2022-10-16T04:26:43;14.90;99.90
15815;DHT22;8008;50.024;8.172;2022-10-16T04:29:12;14.90;99.90
15815;DHT22;8008;50.024;8.172;2022-10-16T04:31:40;14.90;99.90
15815;DHT22;8008;50.024;8.172;2022-10-16T04:34:08;14.90;99.90
15815;DHT22;8008;50.024;8.172;2022-10-16T04:36:36;14.90;99.90
15815;DHT22;8008;50.024;8.172;2022-10-16T04:39:04;14.90;99.90
15815;DHT22;8008;50.024;8.172;2022-10-16T04:41:32;14.90;99.90
15815;DHT22;8008;50.024;8.172;2022-10-16T04:44:00;15.00;99.90
15815;DHT22;8008;50.024;8.172;2022-10-16T04:46:29;15.00;99.90
15815;DHT22;8008;50.024;8.172;2022-10-16T04:48:58;15.00;99.90
15815;DHT22;8008;50.024;8.172;2022-10-16T04:51:26;15.00;99.90
15815;DHT22;8008;50.024;8.172;2022-10-16T04:53:54;14.90;99.90
15815;DHT22;8008;50.024;8.172;2022-10-16T04:56:22;14.90;99.90
15815;DHT22;8008;50.024;8.172;2022-10-16T04:58:51;15.00;99.90
15815;DHT22;8008;50.024;8.172;2022-10-16T05:01:18;15.00;99.90
15815;DHT22;8008;50.024;8.172;2022-10-16T05:03:48;15.00;99.90
15815;DHT22;8008;50.024;8.172;2022-10-16T05:06:16;14.90;99.90
15815;DHT22;8008;50.024;8.172;2022-10-16T05:08:43;15.00;99.90
15815;DHT22;8008;50.024;8.172;2022-10-16T05:11:12;15.00;99.90
15815;DHT22;8008;50.024;8.172;2022-10-16T05:13:40;14.90;99.90
15815;DHT22;8008;50.024;8.172;2022-10-16T05:16:07;14.90;99.90
15815;DHT22;8008;50.024;8.172;2022-10-16T05:18:35;15.00;99.90
15815;DHT22;8008;50.024;8.172;2022-10-16T05:21:05;14.90;99.90
15815;DHT22;8008;50.024;8.172;2022-10-16T05:23:33;14.90;99.90
15815;DHT22;8008;50.024;8.172;2022-10-16T05:26:01;15.00;99.90
15815;DHT22;8008;50.024;8.172;2022-10-16T05:28:30;15.00;99.90
15815;DHT22;8008;50.024;8.172;2022-10-16T05:30:58;14.90;99.90
15815;DHT22;8008;50.024;8.172;2022-10-16T05:33:26;14.90;99.90
15815;DHT22;8008;50.024;8.172;2022-10-16T05:35:54;14.90;99.90
15815;DHT22;8008;50.024;8.172;2022-10-16T05:38:23;15.00;99.90
15815;DHT22;8008;50.024;8.172;2022-10-16T05:40:51;14.90;99.90
15815;DHT22;8008;50.024;8.172;2022-10-16T05:43:20;14.90;99.90
15815;DHT22;8008;50.024;8.172;2022-10-16T05:45:54;14.90;99.90
15815;DHT22;8008;50.024;8.172;2022-10-16T05:48:22;14.90;99.90
15815;DHT22;8008;50.024;8.172;2022-10-16T05:50:57;15.00;99.90
15815;DHT22;8008;50.024;8.172;2022-10-16T05:53:27;15.00;99.90
15815;DHT22;8008;50.024;8.172;2022-10-16T05:55:56;14.90;99.90
15815;DHT22;8008;50.024;8.172;2022-10-16T05:58:24;14.90;99.90
15815;DHT22;8008;50.024;8.172;2022-10-16T06:00:54;14.90;99.90
15815;DHT22;8008;50.024;8.172;2022-10-16T06:03:22;14.90;99.90
15815;DHT22;8008;50.024;8.172;2022-10-16T06:05:50;14.90;99.90
15815;DHT22;8008;50.024;8.172;2022-10-16T06:08:18;14.90;99.90
15815;DHT22;8008;50.024;8.172;2022-10-16T06:10:48;14.90;99.90
15815;DHT22;8008;50.024;8.172;2022-10-16T06:13:16;14.90;99.90
15815;DHT22;8008;50.024;8.172;2022-10-16T06:15:44;14.90;99.90
15815;DHT22;8008;50.024;8.172;2022-10-16T06:18:13;14.90;99.90
15815;DHT22;8008;50.024;8.172;2022-10-16T06:20:40;14.90;99.90
15815;DHT22;8008;50.024;8.172;2022-10-16T06:23:08;14.90;99.90
15815;DHT22;8008;50.024;8.172;2022-10-16T06:25:36;14.90;99.90
15815;DHT22;8008;50.024;8.172;2022-10-16T06:28:05;15.00;99.90
15815;DHT22;8008;50.024;8.172;2022-10-16T06:30:33;15.00;99.90
15815;DHT22;8008;50.024;8.172;2022-10-16T06:33:01;15.00;99.90
15815;DHT22;8008;50.024;8.172;2022-10-16T06:35:29;15.00;99.90
15815;DHT22;8008;50.024;8.172;2022-10-16T06:37:58;15.10;99.90
15815;DHT22;8008;50.024;8.172;2022-10-16T06:40:26;15.10;99.90
15815;DHT22;8008;50.024;8.172;2022-10-16T06:42:55;15.10;99.90
15815;DHT22;8008;50.024;8.172;2022-10-16T06:45:24;15.10;99.90
15815;DHT22;8008;50.024;8.172;2022-10-16T06:47:52;15.10;99.90
15815;DHT22;8008;50.024;8.172;2022-10-16T06:50:20;15.20;99.90
15815;DHT22;8008;50.024;8.172;2022-10-16T06:52:48;15.10;99.90
15815;DHT22;8008;50.024;8.172;2022-10-16T06:55:16;15.20;99.90
15815;DHT22;8008;50.024;8.172;2022-10-16T06:57:47;15.20;99.90
15815;DHT22;8008;50.024;8.172;2022-10-16T07:00:15;15.30;99.90
15815;DHT22;8008;50.024;8.172;2022-10-16T07:02:44;15.30;99.90
15815;DHT22;8008;50.024;8.172;2022-10-16T07:05:12;15.30;99.90
15815;DHT22;8008;50.024;8.172;2022-10-16T07:07:40;15.30;99.90
15815;DHT22;8008;50.024;8.172;2022-10-16T07:10:08;15.30;99.90
15815;DHT22;8008;50.024;8.172;2022-10-16T07:12:36;15.30;99.90
15815;DHT22;8008;50.024;8.172;2022-10-16T07:15:05;15.30;99.90
15815;DHT22;8008;50.024;8.172;2022-10-16T07:17:33;15.30;99.90
15815;DHT22;8008;50.024;8.172;2022-10-16T07:20:03;15.30;99.90
15815;DHT22;8008;50.024;8.172;2022-10-16T07:22:32;15.40;99.90
15815;DHT22;8008;50.024;8.172;2022-10-16T07:25:00;15.40;99.90
15815;DHT22;8008;50.024;8.172;2022-10-16T07:27:28;15.30;99.90
15815;DHT22;8008;50.024;8.172;2022-10-16T07:29:56;15.30;99.90
15815;DHT22;8008;50.024;8.172;2022-10-16T07:32:24;15.30;99.90
15815;DHT22;8008;50.024;8.172;2022-10-16T07:34:53;15.30;99.90
15815;DHT22;8008;50.024;8.172;2022-10-16T07:37:23;15.40;99.90
15815;DHT22;8008;50.024;8.172;2022-10-16T07:39:51;15.40;99.90
15815;DHT22;8008;50.024;8.172;2022-10-16T07:42:19;15.50;99.90
15815;DHT22;8008;50.024;8.172;2022-10-16T07:44:47;15.50;99.90
15815;DHT22;8008;50.024;8.172;2022-10-16T07:47:15;15.50;99.90
15815;DHT22;8008;50.024;8.172;2022-10-16T07:49:43;15.60;99.90
15815;DHT22;8008;50.024;8.172;2022-10-16T07:52:11;15.60;99.90
15815;DHT22;8008;50.024;8.172;2022-10-16T07:54:40;15.60;99.90
15815;DHT22;8008;50.024;8.172;2022-10-16T07:57:08;15.60;99.90
15815;DHT22;8008;50.024;8.172;2022-10-16T07:59:36;15.70;99.90
15815;DHT22;8008;50.024;8.172;2022-10-16T08:02:04;15.80;99.90
15815;DHT22;8008;50.024;8.172;2022-10-16T08:04:32;15.80;99.90
15815;DHT22;8008;50.024;8.172;2022-10-16T08:07:00;15.80;99.90
15815;DHT22;8008;50.024;8.172;2022-10-16T08:09:28;15.80;99.90
15815;DHT22;8008;50.024;8.172;2022-10-16T08:11:57;15.80;99.90
15815;DHT22;8008;50.024;8.172;2022-10-16T08:14:28;15.80;99.90
15815;DHT22;8008;50.024;8.172;2022-10-16T08:16:56;15.80;99.90
15815;DHT22;8008;50.024;8.172;2022-10-16T08:19:24;15.80;99.90
15815;DHT22;8008;50.024;8.172;2022-10-16T08:21:52;15.80;99.90
15815;DHT22;8008;50.024;8.172;2022-10-16T08:24:20;15.80;99.90
15815;DHT22;8008;50.024;8.172;2022-10-16T08:26:48;15.80;99.90
15815;DHT22;8008;50.024;8.172;2022-10-16T08:29:17;15.80;99.90
15815;DHT22;8008;50.024;8.172;2022-10-16T08:31:45;15.90;99.90
15815;DHT22;8008;50.024;8.172;2022-10-16T08:34:13;15.90;99.90
15815;DHT22;8008;50.024;8.172;2022-10-16T08:36:41;15.90;99.90
15815;DHT22;8008;50.024;8.172;2022-10-16T08:39:09;15.80;99.90
15815;DHT22;8008;50.024;8.172;2022-10-16T08:42:01;15.80;99.90
15815;DHT22;8008;50.024;8.172;2022-10-16T08:44:47;15.90;99.90
15815;DHT22;8008;50.024;8.172;2022-10-16T08:47:23;15.90;99.90
15815;DHT22;8008;50.024;8.172;2022-10-16T08:49:57;15.90;99.90
15815;DHT22;8008;50.024;8.172;2022-10-16T08:52:29;15.90;99.90
15815;DHT22;8008;50.024;8.172;2022-10-16T08:54:59;16.00;99.90
15815;DHT22;8008;50.024;8.172;2022-10-16T08:57:27;16.10;99.90
15815;DHT22;8008;50.024;8.172;2022-10-16T09:00:00;16.00;99.90
15815;DHT22;8008;50.024;8.172;2022-10-16T09:02:32;16.00;99.90
15815;DHT22;8008;50.024;8.172;2022-10-16T09:05:38;16.00;99.90
15815;DHT22;8008;50.024;8.172;2022-10-16T09:08:14;16.00;99.90
15815;DHT22;8008;50.024;8.172;2022-10-16T09:10:47;16.00;99.90
15815;DHT22;8008;50.024;8.172;2022-10-16T09:13:23;16.00;99.90
15815;DHT22;8008;50.024;8.172;2022-10-16T09:16:01;16.00;99.90
15815;DHT22;8008;50.024;8.172;2022-10-16T09:18:39;16.00;99.90
15815;DHT22;8008;50.024;8.172;2022-10-16T09:21:14;16.00;99.90
15815;DHT22;8008;50.024;8.172;2022-10-16T09:23:43;16.00;99.90
15815;DHT22;8008;50.024;8.172;2022-10-16T09:26:13;16.00;99.90
15815;DHT22;8008;50.024;8.172;2022-10-16T09:28:41;16.00;99.90
15815;DHT22;8008;50.024;8.172;2022-10-16T09:31:16;16.10;99.90
15815;DHT22;8008;50.024;8.172;2022-10-16T09:33:48;16.20;99.90
15815;DHT22;8008;50.024;8.172;2022-10-16T09:36:17;16.20;99.90
15815;DHT22;8008;50.024;8.172;2022-10-16T09:38:45;16.30;99.90
15815;DHT22;8008;50.024;8.172;2022-10-16T09:41:17;16.40;99.90
15815;DHT22;8008;50.024;8.172;2022-10-16T09:43:53;16.40;99.90
15815;DHT22;8008;50.024;8.172;2022-10-16T09:46:30;16.50;99.90
15815;DHT22;8008;50.024;8.172;2022-10-16T09:49:00;16.70;99.90
15815;DHT22;8008;50.024;8.172;2022-10-16T09:51:30;16.70;99.90
15815;DHT22;8008;50.024;8.172;2022-10-16T09:54:00;16.80;99.90
15815;DHT22;8008;50.024;8.172;2022-10-16T09:56:30;16.90;99.90
15815;DHT22;8008;50.024;8.172;2022-10-16T09:59:15;17.00;99.90
15815;DHT22;8008;50.024;8.172;2022-10-16T10:01:46;17.00;99.90
15815;DHT22;8008;50.024;8.172;2022-10-16T10:04:15;17.20;99.90
15815;DHT22;8008;50.024;8.172;2022-10-16T10:06:45;17.30;99.90
15815;DHT22;8008;50.024;8.172;2022-10-16T10:09:17;17.30;99.90
15815;DHT22;8008;50.024;8.172;2022-10-16T10:11:52;17.40;99.90
15815;DHT22;8008;50.024;8.172;2022-10-16T10:14:27;17.50;99.90
15815;DHT22;8008;50.024;8.172;2022-10-16T10:17:18;17.60;99.90
15815;DHT22;8008;50.024;8.172;2022-10-16T10:19:52;17.60;99.90
15815;DHT22;8008;50.024;8.172;2022-10-16T10:22:26;17.60;99.90
15815;DHT22;8008;50.024;8.172;2022-10-16T10:24:57;17.70;99.90
15815;DHT22;8008;50.024;8.172;2022-10-16T10:27:34;17.80;99.90
15815;DHT22;8008;50.024;8.172;2022-10-16T10:30:13;17.90;99.90
15815;DHT22;8008;50.024;8.172;2022-10-16T10:32:56;17.90;99.90
15815;DHT22;8008;50.024;8.172;2022-10-16T10:35:36;17.80;99.90
15815;DHT22;8008;50.024;8.172;2022-10-16T10:38:20;17.80;99.90
15815;DHT22;8008;50.024;8.172;2022-10-16T10:40:56;17.90;99.90
15815;DHT22;8008;50.024;8.172;2022-10-16T10:43:41;17.90;99.90
15815;DHT22;8008;50.024;8.172;2022-10-16T10:46:23;17.90;99.90
15815;DHT22;8008;50.024;8.172;2022-10-16T10:49:03;17.90;99.90
15815;DHT22;8008;50.024;8.172;2022-10-16T10:51:41;18.00;99.90
15815;DHT22;8008;50.024;8.172;2022-10-16T10:54:15;18.10;99.90
15815;DHT22;8008;50.024;8.172;2022-10-16T10:56:49;18.20;99.90
15815;DHT22;8008;50.024;8.172;2022-10-16T10:59:37;18.20;99.90
15815;DHT22;8008;50.024;8.172;2022-10-16T11:02:17;18.40;99.90
15815;DHT22;8008;50.024;8.172;2022-10-16T11:07:50;18.70;99.90
15815;DHT22;8008;50.024;8.172;2022-10-16T11:10:22;18.90;99.90
15815;DHT22;8008;50.024;8.172;2022-10-16T11:12:55;18.90;99.90
15815;DHT22;8008;50.024;8.172;2022-10-16T11:15:29;19.00;99.90
15815;DHT22;8008;50.024;8.172;2022-10-16T11:18:04;19.00;99.90
15815;DHT22;8008;50.024;8.172;2022-10-16T11:20:37;19.00;99.90
15815;DHT22;8008;50.024;8.172;2022-10-16T11:23:12;19.10;99.90
15815;DHT22;8008;50.024;8.172;2022-10-16T11:25:43;19.10;99.90
15815;DHT22;8008;50.024;8.172;2022-10-16T11:28:13;19.00;99.90
15815;DHT22;8008;50.024;8.172;2022-10-16T11:30:46;19.00;99.90
15815;DHT22;8008;50.024;8.172;2022-10-16T11:33:28;19.00;99.90
15815;DHT22;8008;50.024;8.172;2022-10-16T11:36:04;18.90;99.90
15815;DHT22;8008;50.024;8.172;2022-10-16T11:38:38;19.00;99.90
15815;DHT22;8008;50.024;8.172;2022-10-16T11:41:15;18.90;99.90
15815;DHT22;8008;50.024;8.172;2022-10-16T11:43:51;18.70;99.90
15815;DHT22;8008;50.024;8.172;2022-10-16T11:46:21;18.70;99.90
15815;DHT22;8008;50.024;8.172;2022-10-16T11:48:56;18.70;99.90
15815;DHT22;8008;50.024;8.172;2022-10-16T11:51:33;18.60;99.90
15815;DHT22;8008;50.024;8.172;2022-10-16T11:54:08;18.60;99.90
15815;DHT22;8008;50.024;8.172;2022-10-16T11:56:43;18.70;99.90
15815;DHT22;8008;50.024;8.172;2022-10-16T11:59:17;18.70;99.90
15815;DHT22;8008;50.024;8.172;2022-10-16T12:01:51;18.70;99.90
15815;DHT22;8008;50.024;8.172;2022-10-16T12:04:28;18.80;99.90
15815;DHT22;8008;50.024;8.172;2022-10-16T12:07:03;18.80;99.90
15815;DHT22;8008;50.024;8.172;2022-10-16T12:09:36;18.70;99.90
15815;DHT22;8008;50.024;8.172;2022-10-16T12:12:05;18.70;99.90
15815;DHT22;8008;50.024;8.172;2022-10-16T12:14:36;18.60;99.90
15815;DHT22;8008;50.024;8.172;2022-10-16T12:17:27;18.60;99.90
15815;DHT22;8008;50.024;8.172;2022-10-16T12:20:01;18.60;99.90
15815;DHT22;8008;50.024;8.172;2022-10-16T12:22:31;18.60;99.90
15815;DHT22;8008;50.024;8.172;2022-10-16T12:25:05;18.60;99.90
15815;DHT22;8008;50.024;8.172;2022-10-16T12:27:54;18.50;99.90
15815;DHT22;8008;50.024;8.172;2022-10-16T12:30:24;18.50;99.90
15815;DHT22;8008;50.024;8.172;2022-10-16T12:33:00;18.50;99.90
15815;DHT22;8008;50.024;8.172;2022-10-16T12:35:32;18.50;99.90
15815;DHT22;8008;50.024;8.172;2022-10-16T12:38:06;18.50;99.90
15815;DHT22;8008;50.024;8.172;2022-10-16T12:40:37;18.50;99.90
15815;DHT22;8008;50.024;8.172;2022-10-16T12:43:23;18.50;99.90
15815;DHT22;8008;50.024;8.172;2022-10-16T12:46:00;18.40;99.90
15815;DHT22;8008;50.024;8.172;2022-10-16T12:48:29;18.40;99.90
15815;DHT22;8008;50.024;8.172;2022-10-16T12:51:24;18.50;99.90
15815;DHT22;8008;50.024;8.172;2022-10-16T12:53:59;18.60;99.90
15815;DHT22;8008;50.024;8.172;2022-10-16T12:56:37;18.70;99.90
15815;DHT22;8008;50.024;8.172;2022-10-16T12:59:19;18.70;99.90
15815;DHT22;8008;50.024;8.172;2022-10-16T13:02:08;18.80;99.90
15815;DHT22;8008;50.024;8.172;2022-10-16T13:04:55;18.70;99.90
15815;DHT22;8008;50.024;8.172;2022-10-16T13:07:42;18.80;99.90
15815;DHT22;8008;50.024;8.172;2022-10-16T13:10:21;18.80;99.90
15815;DHT22;8008;50.024;8.172;2022-10-16T13:13:06;18.70;99.90
15815;DHT22;8008;50.024;8.172;2022-10-16T13:15:50;18.70;99.90
15815;DHT22;8008;50.024;8.172;2022-10-16T13:18:24;18.70;99.90
15815;DHT22;8008;50.024;8.172;2022-10-16T13:21:10;18.80;99.90
15815;DHT22;8008;50.024;8.172;2022-10-16T13:23:45;18.90;99.90
15815;DHT22;8008;50.024;8.172;2022-10-16T13:26:23;19.00;99.90
15815;DHT22;8008;50.024;8.172;2022-10-16T13:28:53;19.20;99.90
15815;DHT22;8008;50.024;8.172;2022-10-16T13:31:26;19.20;99.90
15815;DHT22;8008;50.024;8.172;2022-10-16T13:33:56;19.20;99.90
15815;DHT22;8008;50.024;8.172;2022-10-16T13:36:27;19.10;99.90
15815;DHT22;8008;50.024;8.172;2022-10-16T13:39:11;19.10;99.90
15815;DHT22;8008;50.024;8.172;2022-10-16T13:41:39;19.00;99.90
15815;DHT22;8008;50.024;8.172;2022-10-16T13:44:14;19.10;99.90
15815;DHT22;8008;50.024;8.172;2022-10-16T13:46:42;19.00;99.90
15815;DHT22;8008;50.024;8.172;2022-10-16T13:49:14;19.00;99.90
15815;DHT22;8008;50.024;8.172;2022-10-16T13:51:54;19.10;99.90
15815;DHT22;8008;50.024;8.172;2022-10-16T13:54:23;19.10;99.90
15815;DHT22;8008;50.024;8.172;2022-10-16T13:56:52;19.10;99.90
15815;DHT22;8008;50.024;8.172;2022-10-16T13:59:36;19.10;99.90
15815;DHT22;8008;50.024;8.172;2022-10-16T14:02:14;19.10;99.90
15815;DHT22;8008;50.024;8.172;2022-10-16T14:04:45;19.10;99.90
15815;DHT22;8008;50.024;8.172;2022-10-16T14:07:17;19.00;99.90
15815;DHT22;8008;50.024;8.172;2022-10-16T14:09:50;19.00;99.90
15815;DHT22;8008;50.024;8.172;2022-10-16T14:12:19;19.00;99.90
15815;DHT22;8008;50.024;8.172;2022-10-16T14:14:54;19.00;99.90
15815;DHT22;8008;50.024;8.172;2022-10-16T14:17:24;19.00;99.90
15815;DHT22;8008;50.024;8.172;2022-10-16T14:19:55;19.00;99.90
15815;DHT22;8008;50.024;8.172;2022-10-16T14:22:32;19.10;99.90
15815;DHT22;8008;50.024;8.172;2022-10-16T14:25:02;19.00;99.90
15815;DHT22;8008;50.024;8.172;2022-10-16T14:27:32;19.10;99.90
15815;DHT22;8008;50.024;8.172;2022-10-16T14:30:14;19.20;99.90
15815;DHT22;8008;50.024;8.172;2022-10-16T14:32:53;19.20;99.90
15815;DHT22;8008;50.024;8.172;2022-10-16T14:35:24;19.20;99.90
15815;DHT22;8008;50.024;8.172;2022-10-16T14:37:53;19.20;99.90
15815;DHT22;8008;50.024;8.172;2022-10-16T14:40:25;19.10;99.90
15815;DHT22;8008;50.024;8.172;2022-10-16T14:42:53;19.00;99.90
15815;DHT22;8008;50.024;8.172;2022-10-16T14:45:24;19.00;99.90
15815;DHT22;8008;50.024;8.172;2022-10-16T14:47:55;18.90;99.90
15815;DHT22;8008;50.024;8.172;2022-10-16T14:50:24;18.90;99.90
15815;DHT22;8008;50.024;8.172;2022-10-16T14:52:52;18.90;99.90
15815;DHT22;8008;50.024;8.172;2022-10-16T14:55:20;18.80;99.90
15815;DHT22;8008;50.024;8.172;2022-10-16T14:57:54;18.70;99.90
15815;DHT22;8008;50.024;8.172;2022-10-16T15:00:27;18.70;99.90
15815;DHT22;8008;50.024;8.172;2022-10-16T15:02:55;18.60;99.90
15815;DHT22;8008;50.024;8.172;2022-10-16T15:05:24;18.60;99.90
15815;DHT22;8008;50.024;8.172;2022-10-16T15:07:53;18.60;99.90
15815;DHT22;8008;50.024;8.172;2022-10-16T15:10:23;18.60;99.90
15815;DHT22;8008;50.024;8.172;2022-10-16T15:12:51;18.60;99.90
15815;DHT22;8008;50.024;8.172;2022-10-16T15:15:32;18.50;99.90
15815;DHT22;8008;50.024;8.172;2022-10-16T15:18:02;18.50;99.90
15815;DHT22;8008;50.024;8.172;2022-10-16T15:20:31;18.50;99.90
15815;DHT22;8008;50.024;8.172;2022-10-16T15:23:02;18.40;99.90
15815;DHT22;8008;50.024;8.172;2022-10-16T15:25:33;18.40;99.90
15815;DHT22;8008;50.024;8.172;2022-10-16T15:28:03;18.30;99.90
15815;DHT22;8008;50.024;8.172;2022-10-16T15:30:34;18.30;99.90
15815;DHT22;8008;50.024;8.172;2022-10-16T15:33:03;18.20;99.90
15815;DHT22;8008;50.024;8.172;2022-10-16T15:35:31;18.20;99.90
15815;DHT22;8008;50.024;8.172;2022-10-16T15:37:59;18.20;99.90
15815;DHT22;8008;50.024;8.172;2022-10-16T15:40:27;18.20;99.90
15815;DHT22;8008;50.024;8.172;2022-10-16T15:42:55;18.20;99.90
15815;DHT22;8008;50.024;8.172;2022-10-16T15:45:23;18.10;99.90
15815;DHT22;8008;50.024;8.172;2022-10-16T15:47:52;18.10;99.90
15815;DHT22;8008;50.024;8.172;2022-10-16T15:50:20;18.10;99.90
15815;DHT22;8008;50.024;8.172;2022-10-16T15:52:48;18.00;99.90
15815;DHT22;8008;50.024;8.172;2022-10-16T15:55:17;18.00;99.90
15815;DHT22;8008;50.024;8.172;2022-10-16T15:57:45;18.00;99.90
15815;DHT22;8008;50.024;8.172;2022-10-16T16:00:16;18.00;99.90
15815;DHT22;8008;50.024;8.172;2022-10-16T16:02:48;18.00;99.90
15815;DHT22;8008;50.024;8.172;2022-10-16T16:05:19;18.00;99.90
15815;DHT22;8008;50.024;8.172;2022-10-16T16:07:47;17.90;99.90
15815;DHT22;8008;50.024;8.172;2022-10-16T16:10:15;17.90;99.90
15815;DHT22;8008;50.024;8.172;2022-10-16T16:12:46;17.80;99.90
15815;DHT22;8008;50.024;8.172;2022-10-16T16:15:16;17.80;99.90
15815;DHT22;8008;50.024;8.172;2022-10-16T16:17:44;17.80;99.90
15815;DHT22;8008;50.024;8.172;2022-10-16T16:20:12;17.80;99.90
15815;DHT22;8008;50.024;8.172;2022-10-16T16:22:42;17.80;99.90
15815;DHT22;8008;50.024;8.172;2022-10-16T16:25:10;17.70;99.90
15815;DHT22;8008;50.024;8.172;2022-10-16T16:27:38;17.70;99.90
15815;DHT22;8008;50.024;8.172;2022-10-16T16:30:08;17.70;99.90
15815;DHT22;8008;50.024;8.172;2022-10-16T16:32:45;17.60;99.90
15815;DHT22;8008;50.024;8.172;2022-10-16T16:35:12;17.60;99.90
15815;DHT22;8008;50.024;8.172;2022-10-16T16:37:42;17.50;99.90
15815;DHT22;8008;50.024;8.172;2022-10-16T16:40:10;17.50;99.90
15815;DHT22;8008;50.024;8.172;2022-10-16T16:42:38;17.50;99.90
15815;DHT22;8008;50.024;8.172;2022-10-16T16:45:07;17.50;99.90
15815;DHT22;8008;50.024;8.172;2022-10-16T16:47:35;17.50;99.90
15815;DHT22;8008;50.024;8.172;2022-10-16T16:50:05;17.50;99.90
15815;DHT22;8008;50.024;8.172;2022-10-16T16:52:34;17.40;99.90
15815;DHT22;8008;50.024;8.172;2022-10-16T16:55:04;17.40;99.90
15815;DHT22;8008;50.024;8.172;2022-10-16T16:57:32;17.40;99.90
15815;DHT22;8008;50.024;8.172;2022-10-16T17:00:00;17.40;99.90
15815;DHT22;8008;50.024;8.172;2022-10-16T17:02:28;17.40;99.90
15815;DHT22;8008;50.024;8.172;2022-10-16T17:04:56;17.40;99.90
15815;DHT22;8008;50.024;8.172;2022-10-16T17:07:24;17.30;99.90
15815;DHT22;8008;50.024;8.172;2022-10-16T17:09:54;17.30;99.90
15815;DHT22;8008;50.024;8.172;2022-10-16T17:12:23;17.40;99.90
15815;DHT22;8008;50.024;8.172;2022-10-16T17:14:51;17.40;99.90
15815;DHT22;8008;50.024;8.172;2022-10-16T17:17:19;17.40;99.90
15815;DHT22;8008;50.024;8.172;2022-10-16T17:19:49;17.40;99.90
15815;DHT22;8008;50.024;8.172;2022-10-16T17:22:17;17.30;99.90
15815;DHT22;8008;50.024;8.172;2022-10-16T17:24:48;17.30;99.90
15815;DHT22;8008;50.024;8.172;2022-10-16T17:27:18;17.20;99.90
15815;DHT22;8008;50.024;8.172;2022-10-16T17:29:51;17.20;99.90
15815;DHT22;8008;50.024;8.172;2022-10-16T17:32:19;17.20;99.90
15815;DHT22;8008;50.024;8.172;2022-10-16T17:34:47;17.10;99.90
15815;DHT22;8008;50.024;8.172;2022-10-16T17:37:15;17.10;99.90
15815;DHT22;8008;50.024;8.172;2022-10-16T17:39:44;17.10;99.90
15815;DHT22;8008;50.024;8.172;2022-10-16T17:42:12;17.10;99.90
15815;DHT22;8008;50.024;8.172;2022-10-16T17:44:39;17.00;99.90
15815;DHT22;8008;50.024;8.172;2022-10-16T17:47:09;17.00;99.90
15815;DHT22;8008;50.024;8.172;2022-10-16T17:49:37;17.00;99.90
15815;DHT22;8008;50.024;8.172;2022-10-16T17:52:05;16.90;99.90
15815;DHT22;8008;50.024;8.172;2022-10-16T17:54:33;16.90;99.90
15815;DHT22;8008;50.024;8.172;2022-10-16T17:57:01;16.90;99.90
15815;DHT22;8008;50.024;8.172;2022-10-16T17:59:29;16.90;99.90
15815;DHT22;8008;50.024;8.172;2022-10-16T18:01:57;16.90;99.90
15815;DHT22;8008;50.024;8.172;2022-10-16T18:04:26;16.80;99.90
15815;DHT22;8008;50.024;8.172;2022-10-16T18:06:54;16.80;99.90
15815;DHT22;8008;50.024;8.172;2022-10-16T18:09:22;16.70;99.90
15815;DHT22;8008;50.024;8.172;2022-10-16T18:11:51;16.80;99.90
15815;DHT22;8008;50.024;8.172;2022-10-16T18:14:26;16.70;99.90
15815;DHT22;8008;50.024;8.172;2022-10-16T18:16:55;16.70;99.90
15815;DHT22;8008;50.024;8.172;2022-10-16T18:19:24;16.70;99.90
15815;DHT22;8008;50.024;8.172;2022-10-16T18:21:53;16.70;99.90
15815;DHT22;8008;50.024;8.172;2022-10-16T18:24:22;16.70;99.90
15815;DHT22;8008;50.024;8.172;2022-10-16T18:26:51;16.70;99.90
15815;DHT22;8008;50.024;8.172;2022-10-16T18:29:23;16.60;99.90
15815;DHT22;8008;50.024;8.172;2022-10-16T18:31:51;16.60;99.90
15815;DHT22;8008;50.024;8.172;2022-10-16T18:34:19;16.60;99.90
15815;DHT22;8008;50.024;8.172;2022-10-16T18:36:47;16.50;99.90
15815;DHT22;8008;50.024;8.172;2022-10-16T18:39:22;16.60;99.90
15815;DHT22;8008;50.024;8.172;2022-10-16T18:41:50;16.50;99.90
15815;DHT22;8008;50.024;8.172;2022-10-16T18:44:20;16.50;99.90
15815;DHT22;8008;50.024;8.172;2022-10-16T18:46:48;16.50;99.90
15815;DHT22;8008;50.024;8.172;2022-10-16T18:49:18;16.60;99.90
15815;DHT22;8008;50.024;8.172;2022-10-16T18:51:46;16.60;99.90
15815;DHT22;8008;50.024;8.172;2022-10-16T18:54:14;16.60;99.90
15815;DHT22;8008;50.024;8.172;2022-10-16T18:56:43;16.60;99.90
15815;DHT22;8008;50.024;8.172;2022-10-16T18:59:11;16.60;99.90
15815;DHT22;8008;50.024;8.172;2022-10-16T19:01:39;16.50;99.90
15815;DHT22;8008;50.024;8.172;2022-10-16T19:04:10;16.50;99.90
15815;DHT22;8008;50.024;8.172;2022-10-16T19:06:40;16.50;99.90
15815;DHT22;8008;50.024;8.172;2022-10-16T19:09:09;16.60;99.90
15815;DHT22;8008;50.024;8.172;2022-10-16T19:11:37;16.50;99.90
15815;DHT22;8008;50.024;8.172;2022-10-16T19:14:09;16.50;99.90